sensor_id;sensor_type;location;lat;lon;timestamp;pressure;altitude;pressure_sealevel;temperature;humidity
35224;BME280;21367;51.930;8.112;2022-10-31T00:00:07;101449.66;;;11.92;100.00
35224;BME280;21367;51.930;8.112;2022-10-31T00:05:18;101450.44;;;11.91;100.00
35224;BME280;21367;51.930;8.112;2022-10-31T00:10:21;101455.34;;;11.85;100.00
35224;BME280;21367;51.930;8.112;2022-10-31T00:15:25;101450.88;;;11.82;100.00
35224;BME280;21367;51.930;8.112;2022-10-31T00:20:32;101463.59;;;11.79;100.00
35224;BME280;21367;51.930;8.112;2022-10-31T00:25:37;101455.88;;;11.79;100.00
35224;BME280;21367;51.930;8.112;2022-10-31T00:30:42;101464.09;;;11.72;100.00
35224;BME280;21367;51.930;8.112;2022-10-31T00:35:51;101467.63;;;11.74;100.00
35224;BME280;21367;51.930;8.112;2022-10-31T00:40:55;101468.50;;;11.74;100.00
35224;BME280;21367;51.930;8.112;2022-10-31T00:45:59;101485.25;;;11.82;100.00
35224;BME280;21367;51.930;8.112;2022-10-31T00:51:06;101480.34;;;11.87;100.00
35224;BME280;21367;51.930;8.112;2022-10-31T00:56:11;101482.63;;;11.99;100.00
35224;BME280;21367;51.930;8.112;2022-10-31T01:01:16;101488.59;;;11.98;100.00
35224;BME280;21367;51.930;8.112;2022-10-31T01:06:23;101476.50;;;11.97;100.00
35224;BME280;21367;51.930;8.112;2022-10-31T01:11:31;101482.28;;;11.91;100.00
35224;BME280;21367;51.930;8.112;2022-10-31T01:16:37;101489.34;;;11.79;100.00
35224;BME280;21367;51.930;8.112;2022-10-31T01:21:44;101494.41;;;11.77;100.00
35224;BME280;21367;51.930;8.112;2022-10-31T01:26:48;101484.38;;;11.66;100.00
35224;BME280;21367;51.930;8.112;2022-10-31T01:31:52;101480.72;;;11.61;100.00
35224;BME280;21367;51.930;8.112;2022-10-31T01:36:58;101476.22;;;11.56;100.00
35224;BME280;21367;51.930;8.112;2022-10-31T01:42:02;101473.97;;;11.46;100.00
35224;BME280;21367;51.930;8.112;2022-10-31T01:47:10;101481.22;;;11.53;100.00
35224;BME280;21367;51.930;8.112;2022-10-31T01:52:24;101484.38;;;11.48;100.00
35224;BME280;21367;51.930;8.112;2022-10-31T01:57:29;101484.06;;;11.42;100.00
35224;BME280;21367;51.930;8.112;2022-10-31T02:02:35;101487.28;;;11.38;100.00
35224;BME280;21367;51.930;8.112;2022-10-31T02:07:46;101479.44;;;11.52;100.00
35224;BME280;21367;51.930;8.112;2022-10-31T02:12:55;101485.91;;;11.44;100.00
35224;BME280;21367;51.930;8.112;2022-10-31T02:18:00;101486.22;;;11.50;100.00
35224;BME280;21367;51.930;8.112;2022-10-31T02:29:03;101479.22;;;11.48;100.00
35224;BME280;21367;51.930;8.112;2022-10-31T02:34:43;101503.06;;;11.62;100.00
35224;BME280;21367;51.930;8.112;2022-10-31T02:39:54;101516.66;;;11.59;100.00
35224;BME280;21367;51.930;8.112;2022-10-31T02:45:21;101514.50;;;11.67;100.00
35224;BME280;21367;51.930;8.112;2022-10-31T02:50:33;101512.06;;;11.86;100.00
35224;BME280;21367;51.930;8.112;2022-10-31T02:55:51;101505.22;;;11.87;100.00
35224;BME280;21367;51.930;8.112;2022-10-31T03:01:20;101505.59;;;12.12;100.00
35224;BME280;21367;51.930;8.112;2022-10-31T03:06:33;101493.81;;;11.99;100.00
35224;BME280;21367;51.930;8.112;2022-10-31T03:11:43;101488.38;;;11.93;100.00
35224;BME280;21367;51.930;8.112;2022-10-31T03:16:51;101475.44;;;11.92;100.00
35224;BME280;21367;51.930;8.112;2022-10-31T03:22:01;101484.94;;;11.76;100.00
35224;BME280;21367;51.930;8.112;2022-10-31T03:27:09;101488.66;;;11.65;100.00
35224;BME280;21367;51.930;8.112;2022-10-31T03:32:17;101493.66;;;11.62;100.00
35224;BME280;21367;51.930;8.112;2022-10-31T03:37:30;101504.41;;;11.53;100.00
35224;BME280;21367;51.930;8.112;2022-10-31T03:42:39;101499.50;;;11.42;100.00
35224;BME280;21367;51.930;8.112;2022-10-31T03:47:44;101505.03;;;11.33;100.00
35224;BME280;21367;51.930;8.112;2022-10-31T03:52:56;101503.91;;;11.28;100.00
35224;BME280;21367;51.930;8.112;2022-10-31T03:58:03;101512.59;;;11.30;100.00
35224;BME280;21367;51.930;8.112;2022-10-31T04:03:11;101517.53;;;11.25;100.00
35224;BME280;21367;51.930;8.112;2022-10-31T04:08:24;101515.41;;;11.18;100.00
35224;BME280;21367;51.930;8.112;2022-10-31T04:13:33;101514.63;;;11.19;100.00
35224;BME280;21367;51.930;8.112;2022-10-31T04:18:45;101513.25;;;11.09;100.00
35224;BME280;21367;51.930;8.112;2022-10-31T04:23:53;101510.22;;;11.00;100.00
35224;BME280;21367;51.930;8.112;2022-10-31T04:28:59;101510.44;;;10.88;100.00
35224;BME280;21367;51.930;8.112;2022-10-31T04:34:04;101497.91;;;10.95;100.00
35224;BME280;21367;51.930;8.112;2022-10-31T04:39:11;101499.78;;;10.66;100.00
35224;BME280;21367;51.930;8.112;2022-10-31T04:44:21;101498.34;;;10.71;100.00
35224;BME280;21367;51.930;8.112;2022-10-31T04:49:27;101491.66;;;10.75;100.00
35224;BME280;21367;51.930;8.112;2022-10-31T04:54:34;101493.03;;;10.68;100.00
35224;BME280;21367;51.930;8.112;2022-10-31T04:59:57;101490.88;;;10.59;100.00
35224;BME280;21367;51.930;8.112;2022-10-31T05:05:01;101484.59;;;10.54;100.00
35224;BME280;21367;51.930;8.112;2022-10-31T05:10:12;101493.44;;;10.59;100.00
35224;BME280;21367;51.930;8.112;2022-10-31T05:15:18;101487.69;;;10.49;100.00
35224;BME280;21367;51.930;8.112;2022-10-31T05:20:40;101489.03;;;10.42;100.00
35224;BME280;21367;51.930;8.112;2022-10-31T05:25:53;101488.97;;;10.40;100.00
35224;BME280;21367;51.930;8.112;2022-10-31T05:30:56;101481.72;;;10.33;100.00
35224;BME280;21367;51.930;8.112;2022-10-31T05:36:01;101485.44;;;10.38;100.00
35224;BME280;21367;51.930;8.112;2022-10-31T05:41:28;101480.53;;;10.43;100.00
35224;BME280;21367;51.930;8.112;2022-10-31T05:46:40;101491.75;;;10.29;100.00
35224;BME280;21367;51.930;8.112;2022-10-31T05:51:44;101488.63;;;10.34;100.00
35224;BME280;21367;51.930;8.112;2022-10-31T05:56:51;101493.66;;;10.33;100.00
35224;BME280;21367;51.930;8.112;2022-10-31T06:01:55;101484.38;;;10.35;100.00
35224;BME280;21367;51.930;8.112;2022-10-31T06:07:19;101489.19;;;10.29;100.00
35224;BME280;21367;51.930;8.112;2022-10-31T06:12:26;101487.47;;;10.14;100.00
35224;BME280;21367;51.930;8.112;2022-10-31T06:18:08;101501.28;;;10.16;100.00
35224;BME280;21367;51.930;8.112;2022-10-31T06:23:24;101504.38;;;10.26;100.00
35224;BME280;21367;51.930;8.112;2022-10-31T06:28:49;101499.91;;;10.07;100.00
35224;BME280;21367;51.930;8.112;2022-10-31T06:34:12;101500.44;;;10.01;100.00
35224;BME280;21367;51.930;8.112;2022-10-31T06:39:19;101509.28;;;10.06;100.00
35224;BME280;21367;51.930;8.112;2022-10-31T06:44:25;101510.16;;;10.07;100.00
35224;BME280;21367;51.930;8.112;2022-10-31T06:49:29;101509.81;;;10.15;100.00
35224;BME280;21367;51.930;8.112;2022-10-31T06:54:36;101503.47;;;10.71;100.00
35224;BME280;21367;51.930;8.112;2022-10-31T06:59:43;101506.75;;;11.32;100.00
35224;BME280;21367;51.930;8.112;2022-10-31T07:04:59;101506.00;;;11.02;100.00
35224;BME280;21367;51.930;8.112;2022-10-31T07:10:04;101501.75;;;11.35;100.00
35224;BME280;21367;51.930;8.112;2022-10-31T07:15:41;101498.44;;;10.73;100.00
35224;BME280;21367;51.930;8.112;2022-10-31T07:20:45;101505.50;;;10.93;100.00
35224;BME280;21367;51.930;8.112;2022-10-31T07:25:57;101509.16;;;11.13;100.00
35224;BME280;21367;51.930;8.112;2022-10-31T07:31:19;101522.19;;;11.16;100.00
35224;BME280;21367;51.930;8.112;2022-10-31T07:36:24;101521.53;;;11.04;100.00
35224;BME280;21367;51.930;8.112;2022-10-31T07:41:33;101522.69;;;11.25;100.00
35224;BME280;21367;51.930;8.112;2022-10-31T07:46:39;101508.19;;;11.27;100.00
35224;BME280;21367;51.930;8.112;2022-10-31T07:52:02;101513.97;;;11.23;100.00
35224;BME280;21367;51.930;8.112;2022-10-31T07:57:25;101526.19;;;11.44;100.00
35224;BME280;21367;51.930;8.112;2022-10-31T08:02:33;101516.97;;;11.81;100.00
35224;BME280;21367;51.930;8.112;2022-10-31T08:07:57;101511.97;;;11.68;100.00
35224;BME280;21367;51.930;8.112;2022-10-31T08:13:02;101521.97;;;11.78;100.00
35224;BME280;21367;51.930;8.112;2022-10-31T08:18:14;101516.19;;;11.66;100.00
35224;BME280;21367;51.930;8.112;2022-10-31T08:23:18;101509.53;;;11.53;100.00
35224;BME280;21367;51.930;8.112;2022-10-31T08:28:22;101515.13;;;11.28;100.00
35224;BME280;21367;51.930;8.112;2022-10-31T08:33:30;101510.00;;;11.63;100.00
35224;BME280;21367;51.930;8.112;2022-10-31T08:38:53;101506.97;;;11.53;100.00
35224;BME280;21367;51.930;8.112;2022-10-31T08:43:56;101490.97;;;11.43;100.00
35224;BME280;21367;51.930;8.112;2022-10-31T08:49:03;101488.88;;;11.35;100.00
35224;BME280;21367;51.930;8.112;2022-10-31T08:54:07;101487.31;;;11.55;100.00
35224;BME280;21367;51.930;8.112;2022-10-31T08:59:23;101478.50;;;11.68;100.00
35224;BME280;21367;51.930;8.112;2022-10-31T09:04:57;101483.81;;;11.88;100.00
35224;BME280;21367;51.930;8.112;2022-10-31T09:10:01;101480.19;;;12.38;100.00
35224;BME280;21367;51.930;8.112;2022-10-31T09:15:09;101475.13;;;12.77;100.00
35224;BME280;21367;51.930;8.112;2022-10-31T09:20:21;101474.16;;;12.74;100.00
35224;BME280;21367;51.930;8.112;2022-10-31T09:25:27;101480.56;;;13.02;100.00
35224;BME280;21367;51.930;8.112;2022-10-31T09:30:54;101474.25;;;13.34;100.00
35224;BME280;21367;51.930;8.112;2022-10-31T09:36:21;101480.28;;;13.54;100.00
35224;BME280;21367;51.930;8.112;2022-10-31T09:41:30;101471.72;;;13.55;100.00
35224;BME280;21367;51.930;8.112;2022-10-31T09:46:55;101468.31;;;13.77;100.00
35224;BME280;21367;51.930;8.112;2022-10-31T09:52:11;101468.00;;;13.91;100.00
35224;BME280;21367;51.930;8.112;2022-10-31T09:57:23;101469.81;;;14.14;100.00
35224;BME280;21367;51.930;8.112;2022-10-31T10:02:30;101466.72;;;14.23;100.00
35224;BME280;21367;51.930;8.112;2022-10-31T10:07:45;101458.13;;;14.46;100.00
35224;BME280;21367;51.930;8.112;2022-10-31T10:13:50;101452.06;;;15.15;100.00
35224;BME280;21367;51.930;8.112;2022-10-31T10:19:06;101452.28;;;15.70;100.00
35224;BME280;21367;51.930;8.112;2022-10-31T10:24:25;101450.88;;;15.80;100.00
35224;BME280;21367;51.930;8.112;2022-10-31T10:29:37;101442.94;;;16.03;100.00
35224;BME280;21367;51.930;8.112;2022-10-31T10:34:46;101437.84;;;15.79;100.00
35224;BME280;21367;51.930;8.112;2022-10-31T10:40:01;101427.66;;;16.12;100.00
35224;BME280;21367;51.930;8.112;2022-10-31T10:45:14;101408.34;;;16.31;100.00
35224;BME280;21367;51.930;8.112;2022-10-31T10:50:35;101406.41;;;16.52;99.00
35224;BME280;21367;51.930;8.112;2022-10-31T10:55:49;101403.66;;;17.08;96.95
35224;BME280;21367;51.930;8.112;2022-10-31T11:00:55;101395.34;;;17.21;95.68
35224;BME280;21367;51.930;8.112;2022-10-31T11:05:59;101391.38;;;17.02;96.16
35224;BME280;21367;51.930;8.112;2022-10-31T11:11:13;101379.28;;;17.04;94.27
35224;BME280;21367;51.930;8.112;2022-10-31T11:16:33;101370.56;;;17.35;92.63
35224;BME280;21367;51.930;8.112;2022-10-31T11:21:37;101359.47;;;17.41;93.11
35224;BME280;21367;51.930;8.112;2022-10-31T11:26:49;101363.44;;;17.27;93.02
35224;BME280;21367;51.930;8.112;2022-10-31T11:31:55;101360.19;;;17.35;94.16
35224;BME280;21367;51.930;8.112;2022-10-31T11:37:04;101355.19;;;17.43;93.23
35224;BME280;21367;51.930;8.112;2022-10-31T11:42:14;101350.22;;;17.54;92.37
35224;BME280;21367;51.930;8.112;2022-10-31T11:47:24;101337.25;;;17.90;91.74
35224;BME280;21367;51.930;8.112;2022-10-31T11:52:30;101320.78;;;18.32;89.09
35224;BME280;21367;51.930;8.112;2022-10-31T11:57:46;101313.00;;;17.91;89.73
35224;BME280;21367;51.930;8.112;2022-10-31T12:02:50;101304.09;;;18.21;89.71
35224;BME280;21367;51.930;8.112;2022-10-31T12:07:55;101289.22;;;18.59;88.62
35224;BME280;21367;51.930;8.112;2022-10-31T12:13:07;101284.31;;;18.75;86.85
35224;BME280;21367;51.930;8.112;2022-10-31T12:18:28;101283.41;;;19.24;84.88
35224;BME280;21367;51.930;8.112;2022-10-31T12:23:52;101269.38;;;19.16;83.97
35224;BME280;21367;51.930;8.112;2022-10-31T12:29:12;101260.69;;;18.67;87.02
35224;BME280;21367;51.930;8.112;2022-10-31T12:34:34;101244.44;;;18.79;86.53
35224;BME280;21367;51.930;8.112;2022-10-31T12:39:46;101230.81;;;18.93;84.82
35224;BME280;21367;51.930;8.112;2022-10-31T12:45:17;101208.63;;;18.18;88.78
35224;BME280;21367;51.930;8.112;2022-10-31T12:50:38;101200.41;;;17.98;90.22
35224;BME280;21367;51.930;8.112;2022-10-31T12:55:55;101202.50;;;18.15;88.62
35224;BME280;21367;51.930;8.112;2022-10-31T13:01:12;101199.28;;;18.28;88.81
35224;BME280;21367;51.930;8.112;2022-10-31T13:06:19;101188.69;;;18.20;88.99
35224;BME280;21367;51.930;8.112;2022-10-31T13:11:28;101182.66;;;18.21;88.57
35224;BME280;21367;51.930;8.112;2022-10-31T13:16:40;101165.78;;;18.01;90.89
35224;BME280;21367;51.930;8.112;2022-10-31T13:21:55;101158.75;;;17.95;91.37
35224;BME280;21367;51.930;8.112;2022-10-31T13:27:03;101150.63;;;17.78;92.69
35224;BME280;21367;51.930;8.112;2022-10-31T13:32:16;101140.47;;;17.91;90.48
35224;BME280;21367;51.930;8.112;2022-10-31T13:37:26;101145.97;;;18.08;91.32
35224;BME280;21367;51.930;8.112;2022-10-31T13:42:45;101149.88;;;18.31;89.75
35224;BME280;21367;51.930;8.112;2022-10-31T13:48:01;101134.69;;;18.07;91.13
35224;BME280;21367;51.930;8.112;2022-10-31T13:53:22;101119.09;;;18.07;89.63
35224;BME280;21367;51.930;8.112;2022-10-31T13:58:28;101107.34;;;18.29;88.59
35224;BME280;21367;51.930;8.112;2022-10-31T14:03:36;101112.31;;;18.17;88.46
35224;BME280;21367;51.930;8.112;2022-10-31T14:08:48;101089.31;;;18.41;84.54
35224;BME280;21367;51.930;8.112;2022-10-31T14:13:54;101091.34;;;18.08;86.82
35224;BME280;21367;51.930;8.112;2022-10-31T14:19:05;101082.22;;;17.83;88.64
35224;BME280;21367;51.930;8.112;2022-10-31T14:24:14;101070.50;;;17.59;90.96
35224;BME280;21367;51.930;8.112;2022-10-31T14:29:27;101062.28;;;17.38;93.10
35224;BME280;21367;51.930;8.112;2022-10-31T14:34:39;101049.16;;;17.30;93.97
35224;BME280;21367;51.930;8.112;2022-10-31T14:39:53;101046.25;;;17.58;92.66
35224;BME280;21367;51.930;8.112;2022-10-31T14:45:13;101039.09;;;17.47;92.06
35224;BME280;21367;51.930;8.112;2022-10-31T14:50:31;101028.88;;;17.57;91.19
35224;BME280;21367;51.930;8.112;2022-10-31T14:55:43;101026.47;;;17.21;92.63
35224;BME280;21367;51.930;8.112;2022-10-31T15:00:50;101018.25;;;17.01;93.53
35224;BME280;21367;51.930;8.112;2022-10-31T15:06:03;101010.97;;;16.85;94.47
35224;BME280;21367;51.930;8.112;2022-10-31T15:11:14;100996.97;;;16.77;95.11
35224;BME280;21367;51.930;8.112;2022-10-31T15:16:21;100972.56;;;16.70;95.91
35224;BME280;21367;51.930;8.112;2022-10-31T15:21:29;100970.88;;;16.72;95.13
35224;BME280;21367;51.930;8.112;2022-10-31T15:26:37;100978.16;;;16.87;95.12
35224;BME280;21367;51.930;8.112;2022-10-31T15:31:49;100970.31;;;16.84;94.49
35224;BME280;21367;51.930;8.112;2022-10-31T15:36:56;100963.53;;;16.92;94.95
35224;BME280;21367;51.930;8.112;2022-10-31T15:42:00;100971.97;;;16.82;94.69
35224;BME280;21367;51.930;8.112;2022-10-31T15:47:06;100968.81;;;16.56;95.65
35224;BME280;21367;51.930;8.112;2022-10-31T15:52:27;100963.72;;;16.23;97.58
35224;BME280;21367;51.930;8.112;2022-10-31T15:57:33;100963.13;;;15.96;99.47
35224;BME280;21367;51.930;8.112;2022-10-31T16:02:37;100954.34;;;15.91;99.88
35224;BME280;21367;51.930;8.112;2022-10-31T16:07:48;100958.13;;;15.69;100.00
35224;BME280;21367;51.930;8.112;2022-10-31T16:12:52;100972.69;;;15.66;100.00
35224;BME280;21367;51.930;8.112;2022-10-31T16:17:56;100968.75;;;15.47;100.00
35224;BME280;21367;51.930;8.112;2022-10-31T16:23:03;100959.09;;;15.41;100.00
35224;BME280;21367;51.930;8.112;2022-10-31T16:28:14;100956.81;;;15.20;100.00
35224;BME280;21367;51.930;8.112;2022-10-31T16:33:26;100952.88;;;15.35;100.00
35224;BME280;21367;51.930;8.112;2022-10-31T16:38:34;100936.03;;;15.17;100.00
35224;BME280;21367;51.930;8.112;2022-10-31T16:43:38;100938.88;;;15.26;100.00
35224;BME280;21367;51.930;8.112;2022-10-31T16:48:42;100946.56;;;15.23;100.00
35224;BME280;21367;51.930;8.112;2022-10-31T16:53:51;100939.50;;;15.18;100.00
35224;BME280;21367;51.930;8.112;2022-10-31T16:58:55;100930.59;;;15.08;100.00
35224;BME280;21367;51.930;8.112;2022-10-31T17:03:59;100926.81;;;14.95;100.00
35224;BME280;21367;51.930;8.112;2022-10-31T17:09:06;100924.06;;;14.91;100.00
35224;BME280;21367;51.930;8.112;2022-10-31T17:14:10;100918.16;;;14.95;100.00
35224;BME280;21367;51.930;8.112;2022-10-31T17:19:15;100919.84;;;14.94;100.00
35224;BME280;21367;51.930;8.112;2022-10-31T17:24:21;100917.31;;;14.96;100.00
35224;BME280;21367;51.930;8.112;2022-10-31T17:29:25;100913.81;;;14.94;100.00
35224;BME280;21367;51.930;8.112;2022-10-31T17:34:29;100905.09;;;14.90;100.00
35224;BME280;21367;51.930;8.112;2022-10-31T17:39:36;100904.66;;;14.75;100.00
35224;BME280;21367;51.930;8.112;2022-10-31T17:44:39;100893.50;;;14.77;100.00
35224;BME280;21367;51.930;8.112;2022-10-31T17:49:43;100886.06;;;14.58;100.00
35224;BME280;21367;51.930;8.112;2022-10-31T17:54:49;100868.47;;;14.46;100.00
35224;BME280;21367;51.930;8.112;2022-10-31T17:59:53;100864.06;;;14.44;100.00
35224;BME280;21367;51.930;8.112;2022-10-31T18:04:57;100852.06;;;14.46;100.00
35224;BME280;21367;51.930;8.112;2022-10-31T18:10:06;100845.16;;;14.45;100.00
35224;BME280;21367;51.930;8.112;2022-10-31T18:15:10;100848.34;;;14.36;100.00
35224;BME280;21367;51.930;8.112;2022-10-31T18:20:13;100838.09;;;14.39;100.00
35224;BME280;21367;51.930;8.112;2022-10-31T18:25:20;100825.78;;;14.32;100.00
35224;BME280;21367;51.930;8.112;2022-10-31T18:30:24;100818.03;;;14.32;100.00
35224;BME280;21367;51.930;8.112;2022-10-31T18:35:28;100816.13;;;14.25;100.00
35224;BME280;21367;51.930;8.112;2022-10-31T18:40:35;100820.25;;;14.18;100.00
35224;BME280;21367;51.930;8.112;2022-10-31T18:45:38;100810.41;;;14.06;100.00
35224;BME280;21367;51.930;8.112;2022-10-31T18:50:43;100806.09;;;14.05;100.00
35224;BME280;21367;51.930;8.112;2022-10-31T18:55:50;100793.28;;;14.10;100.00
35224;BME280;21367;51.930;8.112;2022-10-31T19:00:54;100787.72;;;13.96;100.00
35224;BME280;21367;51.930;8.112;2022-10-31T19:05:57;100785.13;;;13.95;100.00
35224;BME280;21367;51.930;8.112;2022-10-31T19:11:07;100786.63;;;14.17;100.00
35224;BME280;21367;51.930;8.112;2022-10-31T19:16:13;100781.63;;;14.23;100.00
35224;BME280;21367;51.930;8.112;2022-10-31T19:21:17;100769.50;;;14.22;100.00
35224;BME280;21367;51.930;8.112;2022-10-31T19:26:24;100768.09;;;14.33;100.00
35224;BME280;21367;51.930;8.112;2022-10-31T19:31:28;100769.00;;;14.35;100.00
35224;BME280;21367;51.930;8.112;2022-10-31T19:36:32;100758.56;;;14.30;100.00
35224;BME280;21367;51.930;8.112;2022-10-31T19:41:39;100764.59;;;14.31;100.00
35224;BME280;21367;51.930;8.112;2022-10-31T19:46:43;100757.34;;;14.18;100.00
35224;BME280;21367;51.930;8.112;2022-10-31T19:51:48;100764.16;;;14.16;100.00
35224;BME280;21367;51.930;8.112;2022-10-31T19:56:54;100761.22;;;14.03;100.00
35224;BME280;21367;51.930;8.112;2022-10-31T20:01:58;100759.97;;;13.89;100.00
35224;BME280;21367;51.930;8.112;2022-10-31T20:07:02;100757.28;;;13.86;100.00
35224;BME280;21367;51.930;8.112;2022-10-31T20:12:09;100766.84;;;13.88;100.00
35224;BME280;21367;51.930;8.112;2022-10-31T20:17:12;100752.16;;;13.87;100.00
35224;BME280;21367;51.930;8.112;2022-10-31T20:22:16;100755.09;;;13.70;100.00
35224;BME280;21367;51.930;8.112;2022-10-31T20:27:23;100755.69;;;13.61;100.00
35224;BME280;21367;51.930;8.112;2022-10-31T20:32:27;100744.81;;;13.44;100.00
35224;BME280;21367;51.930;8.112;2022-10-31T20:37:31;100742.22;;;13.44;100.00
35224;BME280;21367;51.930;8.112;2022-10-31T20:42:37;100747.66;;;13.25;100.00
35224;BME280;21367;51.930;8.112;2022-10-31T20:47:41;100745.41;;;13.10;100.00
35224;BME280;21367;51.930;8.112;2022-10-31T20:52:46;100745.25;;;13.04;100.00
35224;BME280;21367;51.930;8.112;2022-10-31T20:57:52;100752.69;;;12.94;100.00
35224;BME280;21367;51.930;8.112;2022-10-31T21:02:56;100756.03;;;12.92;100.00
35224;BME280;21367;51.930;8.112;2022-10-31T21:08:00;100752.31;;;12.84;100.00
35224;BME280;21367;51.930;8.112;2022-10-31T21:13:06;100744.56;;;12.84;100.00
35224;BME280;21367;51.930;8.112;2022-10-31T21:18:11;100728.88;;;12.78;100.00
35224;BME280;21367;51.930;8.112;2022-10-31T21:23:14;100728.97;;;12.54;100.00
35224;BME280;21367;51.930;8.112;2022-10-31T21:28:21;100717.50;;;12.45;100.00
35224;BME280;21367;51.930;8.112;2022-10-31T21:33:26;100725.34;;;12.48;100.00
35224;BME280;21367;51.930;8.112;2022-10-31T21:38:33;100712.38;;;12.47;100.00
35224;BME280;21367;51.930;8.112;2022-10-31T21:43:41;100712.44;;;12.48;100.00
35224;BME280;21367;51.930;8.112;2022-10-31T21:48:47;100711.72;;;12.53;100.00
35224;BME280;21367;51.930;8.112;2022-10-31T21:53:51;100695.69;;;12.61;100.00
35224;BME280;21367;51.930;8.112;2022-10-31T21:59:10;100692.38;;;12.40;100.00
35224;BME280;21367;51.930;8.112;2022-10-31T22:04:14;100694.19;;;12.42;100.00
35224;BME280;21367;51.930;8.112;2022-10-31T22:09:18;100701.97;;;12.44;100.00
35224;BME280;21367;51.930;8.112;2022-10-31T22:14:26;100672.69;;;12.42;100.00
35224;BME280;21367;51.930;8.112;2022-10-31T22:19:30;100668.31;;;12.39;100.00
35224;BME280;21367;51.930;8.112;2022-10-31T22:24:34;100654.91;;;12.24;100.00
35224;BME280;21367;51.930;8.112;2022-10-31T22:29:41;100635.16;;;12.24;100.00
35224;BME280;21367;51.930;8.112;2022-10-31T22:34:44;100637.25;;;12.35;100.00
35224;BME280;21367;51.930;8.112;2022-10-31T22:39:48;100631.28;;;12.37;100.00
35224;BME280;21367;51.930;8.112;2022-10-31T22:44:55;100627.19;;;12.42;100.00
35224;BME280;21367;51.930;8.112;2022-10-31T22:50:01;100617.53;;;12.37;100.00
35224;BME280;21367;51.930;8.112;2022-10-31T22:55:07;100611.25;;;12.29;100.00
35224;BME280;21367;51.930;8.112;2022-10-31T23:00:15;100619.00;;;12.29;100.00
35224;BME280;21367;51.930;8.112;2022-10-31T23:05:18;100622.94;;;12.19;100.00
35224;BME280;21367;51.930;8.112;2022-10-31T23:10:22;100611.44;;;12.09;100.00
35224;BME280;21367;51.930;8.112;2022-10-31T23:15:38;100616.97;;;12.20;100.00
35224;BME280;21367;51.930;8.112;2022-10-31T23:20:41;100600.38;;;12.12;100.00
35224;BME280;21367;51.930;8.112;2022-10-31T23:25:45;100597.75;;;12.10;100.00
35224;BME280;21367;51.930;8.112;2022-10-31T23:31:04;100594.81;;;11.99;100.00
35224;BME280;21367;51.930;8.112;2022-10-31T23:36:08;100596.41;;;12.21;100.00
35224;BME280;21367;51.930;8.112;2022-10-31T23:41:12;100589.53;;;12.22;100.00
35224;BME280;21367;51.930;8.112;2022-10-31T23:46:18;100578.25;;;12.18;100.00
35224;BME280;21367;51.930;8.112;2022-10-31T23:51:22;100587.03;;;12.23;100.00
35224;BME280;21367;51.930;8.112;2022-10-31T23:56:26;100581.31;;;12.32;100.00
